createdAt,value
2022-10-28T00:00:53.529Z,1017.40
2022-10-28T00:01:53.614Z,1017.37
2022-10-28T00:02:53.810Z,1017.33
2022-10-28T00:03:53.518Z,1017.29
2022-10-28T00:04:53.482Z,1017.31
2022-10-28T00:05:53.478Z,1017.32
2022-10-28T00:06:53.460Z,1017.32
2022-10-28T00:07:53.716Z,1017.36
2022-10-28T00:08:53.438Z,1017.35
2022-10-28T00:09:53.432Z,1017.36
2022-10-28T00:10:53.417Z,1017.37
2022-10-28T00:11:53.409Z,1017.37
2022-10-28T00:12:53.427Z,1017.36
2022-10-28T00:13:53.394Z,1017.40
2022-10-28T00:14:53.373Z,1017.39
2022-10-28T00:15:53.365Z,1017.37
2022-10-28T00:16:53.351Z,1017.41
2022-10-28T00:17:53.494Z,1017.39
2022-10-28T00:18:53.330Z,1017.42
2022-10-28T00:19:53.335Z,1017.42
2022-10-28T00:20:53.310Z,1017.41
2022-10-28T00:21:53.296Z,1017.44
2022-10-28T00:22:53.357Z,1017.45
2022-10-28T00:23:53.278Z,1017.45
2022-10-28T00:24:53.264Z,1017.42
2022-10-28T00:25:53.253Z,1017.44
2022-10-28T00:26:53.244Z,1017.43
2022-10-28T00:27:53.468Z,1017.41
2022-10-28T00:28:53.224Z,1017.42
2022-10-28T00:29:53.208Z,1017.44
2022-10-28T00:30:53.200Z,1017.45
2022-10-28T00:31:53.189Z,1017.44
2022-10-28T00:32:53.586Z,1017.34
2022-10-28T00:33:53.164Z,1017.34
2022-10-28T00:34:53.156Z,1017.36
2022-10-28T00:35:53.158Z,1017.35
2022-10-28T00:36:53.134Z,1017.36
2022-10-28T00:37:53.134Z,1017.41
2022-10-28T00:38:53.112Z,1017.39
2022-10-28T00:39:53.100Z,1017.43
2022-10-28T00:40:53.091Z,1017.39
2022-10-28T00:41:53.078Z,1017.45
2022-10-28T00:42:53.424Z,1017.38
2022-10-28T00:44:00.943Z,1017.38
2022-10-28T00:44:53.050Z,1017.32
2022-10-28T00:45:53.037Z,1017.30
2022-10-28T00:46:53.027Z,1017.33
2022-10-28T00:47:53.391Z,1017.33
2022-10-28T00:48:53.008Z,1017.26
2022-10-28T00:49:52.991Z,1017.31
2022-10-28T00:50:52.980Z,1017.28
2022-10-28T00:51:52.984Z,1017.25
2022-10-28T00:52:52.976Z,1017.25
2022-10-28T00:53:52.950Z,1017.23
2022-10-28T00:54:52.941Z,1017.22
2022-10-28T00:55:52.928Z,1017.20
2022-10-28T00:56:52.914Z,1017.20
2022-10-28T00:57:53.218Z,1017.24
2022-10-28T00:58:52.894Z,1017.21
2022-10-28T00:59:52.885Z,1017.19
2022-10-28T01:00:52.872Z,1017.16
2022-10-28T01:01:53.039Z,1017.17
2022-10-28T01:02:52.858Z,1017.21
2022-10-28T01:03:52.838Z,1017.21
2022-10-28T01:04:52.831Z,1017.22
2022-10-28T01:05:52.815Z,1017.24
2022-10-28T01:06:52.805Z,1017.18
2022-10-28T01:07:53.234Z,1017.15
2022-10-28T01:08:57.424Z,1017.18
2022-10-28T01:09:53.775Z,1017.15
2022-10-28T01:10:52.772Z,1017.13
2022-10-28T01:11:52.750Z,1017.18
2022-10-28T01:12:53.059Z,1017.19
2022-10-28T01:13:52.728Z,1017.16
2022-10-28T01:14:52.720Z,1017.16
2022-10-28T01:15:52.706Z,1017.18
2022-10-28T01:16:52.695Z,1017.15
2022-10-28T01:17:52.693Z,1017.18
2022-10-28T01:18:52.675Z,1017.19
2022-10-28T01:19:52.662Z,1017.20
2022-10-28T01:20:52.655Z,1017.18
2022-10-28T01:21:52.649Z,1017.13
2022-10-28T01:22:52.940Z,1017.13
2022-10-28T01:23:52.638Z,1017.09
2022-10-28T01:24:52.612Z,1017.12
2022-10-28T01:25:52.597Z,1017.10
2022-10-28T01:26:52.599Z,1017.12
2022-10-28T01:27:52.577Z,1017.06
2022-10-28T01:28:52.571Z,1017.10
2022-10-28T01:29:52.552Z,1017.10
2022-10-28T01:30:52.544Z,1017.08
2022-10-28T01:31:52.528Z,1017.03
2022-10-28T01:32:52.965Z,1017.00
2022-10-28T01:33:52.510Z,1017.03
2022-10-28T01:34:52.502Z,1016.94
2022-10-28T01:35:52.493Z,1016.99
2022-10-28T01:36:52.477Z,1016.95
2022-10-28T01:37:52.856Z,1016.96
2022-10-28T01:38:52.458Z,1016.96
2022-10-28T01:39:52.459Z,1016.96
2022-10-28T01:40:52.434Z,1016.94
2022-10-28T01:41:52.421Z,1016.91
2022-10-28T01:42:52.428Z,1016.91
2022-10-28T01:43:52.401Z,1016.89
2022-10-28T01:44:52.390Z,1016.89
2022-10-28T01:45:52.379Z,1016.87
2022-10-28T01:46:52.509Z,1016.87
2022-10-28T01:47:52.696Z,1016.85
2022-10-28T01:48:52.348Z,1016.89
2022-10-28T01:49:52.339Z,1016.85
2022-10-28T01:50:52.326Z,1016.84
2022-10-28T01:51:52.634Z,1016.92
2022-10-28T01:52:52.607Z,1016.88
2022-10-28T01:53:52.292Z,1016.89
2022-10-28T01:54:52.282Z,1016.91
2022-10-28T01:55:52.292Z,1016.89
2022-10-28T01:56:52.268Z,1016.86
2022-10-28T01:57:52.248Z,1016.83
2022-10-28T01:58:52.239Z,1016.83
2022-10-28T01:59:52.225Z,1016.79
2022-10-28T02:00:52.265Z,1016.83
2022-10-28T02:01:52.327Z,1016.80
2022-10-28T02:02:52.622Z,1016.77
2022-10-28T02:03:52.182Z,1016.81
2022-10-28T02:04:52.179Z,1016.81
2022-10-28T02:05:52.161Z,1016.79
2022-10-28T02:06:52.163Z,1016.78
2022-10-28T02:07:52.140Z,1016.74
2022-10-28T02:08:52.128Z,1016.72
2022-10-28T02:09:52.116Z,1016.75
2022-10-28T02:10:52.109Z,1016.77
2022-10-28T02:11:52.129Z,1016.72
2022-10-28T02:12:52.427Z,1016.74
2022-10-28T02:13:52.073Z,1016.75
2022-10-28T02:14:52.064Z,1016.72
2022-10-28T02:15:52.051Z,1016.76
2022-10-28T02:16:52.051Z,1016.72
2022-10-28T02:17:52.342Z,1016.72
2022-10-28T02:18:52.025Z,1016.71
2022-10-28T02:19:52.008Z,1016.66
2022-10-28T02:20:51.996Z,1016.68
2022-10-28T02:21:52.000Z,1016.63
2022-10-28T02:22:51.975Z,1016.69
2022-10-28T02:23:51.963Z,1016.70
2022-10-28T02:24:51.956Z,1016.69
2022-10-28T02:25:51.942Z,1016.67
2022-10-28T02:26:51.944Z,1016.70
2022-10-28T02:27:52.393Z,1016.69
2022-10-28T02:28:51.913Z,1016.70
2022-10-28T02:29:51.899Z,1016.74
2022-10-28T02:30:51.888Z,1016.70
2022-10-28T02:31:51.894Z,1016.70
2022-10-28T02:32:52.116Z,1016.71
2022-10-28T02:33:51.854Z,1016.68
2022-10-28T02:34:51.844Z,1016.70
2022-10-28T02:35:51.833Z,1016.65
2022-10-28T02:36:51.833Z,1016.78
2022-10-28T02:37:51.811Z,1016.77
2022-10-28T02:38:51.801Z,1016.85
2022-10-28T02:39:51.790Z,1016.84
2022-10-28T02:41:51.777Z,1016.84
2022-10-28T02:42:51.957Z,1016.84
2022-10-28T02:43:51.770Z,1016.79
2022-10-28T02:44:51.734Z,1016.82
2022-10-28T02:45:51.731Z,1016.73
2022-10-28T02:46:51.726Z,1016.79
2022-10-28T02:47:51.699Z,1016.79
2022-10-28T02:48:51.692Z,1016.69
2022-10-28T02:49:51.705Z,1016.67
2022-10-28T02:50:51.673Z,1016.69
2022-10-28T02:51:51.669Z,1016.67
2022-10-28T02:52:51.804Z,1016.63
2022-10-28T02:53:51.634Z,1016.66
2022-10-28T02:54:51.625Z,1016.64
2022-10-28T02:55:51.613Z,1016.66
2022-10-28T02:56:51.613Z,1016.67
2022-10-28T02:57:51.937Z,1016.68
2022-10-28T02:58:51.585Z,1016.67
2022-10-28T02:59:51.585Z,1016.67
2022-10-28T03:00:51.633Z,1016.69
2022-10-28T03:01:51.669Z,1016.74
2022-10-28T03:02:51.541Z,1016.78
2022-10-28T03:03:51.526Z,1016.76
2022-10-28T03:04:51.517Z,1016.76
2022-10-28T03:05:51.505Z,1016.76
2022-10-28T03:06:51.507Z,1016.76
2022-10-28T03:07:51.650Z,1016.75
2022-10-28T03:08:51.477Z,1016.72
2022-10-28T03:09:51.462Z,1016.73
2022-10-28T03:10:51.471Z,1016.72
2022-10-28T03:11:51.458Z,1016.69
2022-10-28T03:12:51.432Z,1016.76
2022-10-28T03:13:51.419Z,1016.71
2022-10-28T03:14:51.406Z,1016.71
2022-10-28T03:15:51.411Z,1016.71
2022-10-28T03:16:51.395Z,1016.65
2022-10-28T03:17:51.829Z,1016.66
2022-10-28T03:18:51.366Z,1016.69
2022-10-28T03:19:51.353Z,1016.65
2022-10-28T03:20:54.274Z,1016.68
2022-10-28T03:21:52.341Z,1016.65
2022-10-28T03:22:51.830Z,1016.65
2022-10-28T03:23:51.311Z,1016.60
2022-10-28T03:24:51.300Z,1016.61
2022-10-28T03:25:51.289Z,1016.59
2022-10-28T03:26:51.277Z,1016.58
2022-10-28T03:27:51.283Z,1016.61
2022-10-28T03:28:51.256Z,1016.60
2022-10-28T03:29:51.243Z,1016.56
2022-10-28T03:30:51.234Z,1016.60
2022-10-28T03:31:51.239Z,1016.59
2022-10-28T03:32:51.601Z,1016.55
2022-10-28T03:33:51.199Z,1016.57
2022-10-28T03:34:51.189Z,1016.55
2022-10-28T03:35:51.178Z,1016.55
2022-10-28T03:36:51.173Z,1016.54
2022-10-28T03:37:51.168Z,1016.58
2022-10-28T03:38:51.146Z,1016.61
2022-10-28T03:39:51.133Z,1016.62
2022-10-28T03:40:51.124Z,1016.62
2022-10-28T03:41:51.111Z,1016.64
2022-10-28T03:42:51.471Z,1016.62
2022-10-28T03:43:51.097Z,1016.70
2022-10-28T03:44:51.082Z,1016.71
2022-10-28T03:45:51.068Z,1016.70
2022-10-28T03:46:51.056Z,1016.70
2022-10-28T03:47:51.382Z,1016.72
2022-10-28T03:48:51.036Z,1016.71
2022-10-28T03:49:51.023Z,1016.72
2022-10-28T03:50:51.015Z,1016.76
2022-10-28T03:51:51.001Z,1016.75
2022-10-28T03:52:51.005Z,1016.73
2022-10-28T03:53:50.980Z,1016.74
2022-10-28T03:54:50.970Z,1016.73
2022-10-28T03:55:50.960Z,1016.70
2022-10-28T03:56:50.958Z,1016.72
2022-10-28T03:57:51.196Z,1016.68
2022-10-28T03:59:50.913Z,1016.63
2022-10-28T04:00:50.977Z,1016.63
2022-10-28T04:01:51.113Z,1016.63
2022-10-28T04:02:51.151Z,1016.67
2022-10-28T04:03:51.021Z,1016.62
2022-10-28T04:04:50.864Z,1016.59
2022-10-28T04:05:50.850Z,1016.65
2022-10-28T04:06:51.031Z,1016.68
2022-10-28T04:07:50.829Z,1016.62
2022-10-28T04:08:50.822Z,1016.61
2022-10-28T04:09:50.807Z,1016.56
2022-10-28T04:10:50.799Z,1016.52
2022-10-28T04:11:50.793Z,1016.49
2022-10-28T04:12:51.035Z,1016.51
2022-10-28T04:13:50.762Z,1016.51
2022-10-28T04:14:50.751Z,1016.54
2022-10-28T04:15:50.740Z,1016.52
2022-10-28T04:16:50.741Z,1016.54
2022-10-28T04:17:50.723Z,1016.51
2022-10-28T04:18:50.707Z,1016.51
2022-10-28T04:19:50.722Z,1016.55
2022-10-28T04:20:50.686Z,1016.57
2022-10-28T04:21:50.686Z,1016.62
2022-10-28T04:22:54.552Z,1016.61
2022-10-28T04:23:51.653Z,1016.61
2022-10-28T04:24:50.644Z,1016.61
2022-10-28T04:25:50.632Z,1016.64
2022-10-28T04:26:50.629Z,1016.64
2022-10-28T04:27:50.899Z,1016.61
2022-10-28T04:28:50.600Z,1016.62
2022-10-28T04:29:50.589Z,1016.61
2022-10-28T04:30:50.576Z,1016.60
2022-10-28T04:31:52.215Z,1016.59
2022-10-28T04:32:50.556Z,1016.55
2022-10-28T04:33:50.546Z,1016.51
2022-10-28T04:34:50.534Z,1016.45
2022-10-28T04:35:50.538Z,1016.47
2022-10-28T04:36:50.519Z,1016.48
2022-10-28T04:37:50.773Z,1016.47
2022-10-28T04:38:50.489Z,1016.48
2022-10-28T04:39:50.487Z,1016.41
2022-10-28T04:40:50.472Z,1016.47
2022-10-28T04:41:50.468Z,1016.47
2022-10-28T04:42:50.620Z,1016.45
2022-10-28T04:43:50.439Z,1016.49
2022-10-28T04:44:50.423Z,1016.53
2022-10-28T04:45:50.413Z,1016.50
2022-10-28T04:46:50.414Z,1016.45
2022-10-28T04:47:50.393Z,1016.47
2022-10-28T04:48:50.385Z,1016.45
2022-10-28T04:49:50.371Z,1016.45
2022-10-28T04:50:50.362Z,1016.44
2022-10-28T04:51:50.482Z,1016.44
2022-10-28T04:52:50.583Z,1016.46
2022-10-28T04:53:50.333Z,1016.40
2022-10-28T04:54:50.314Z,1016.39
2022-10-28T04:55:50.305Z,1016.43
2022-10-28T04:56:50.300Z,1016.36
2022-10-28T04:57:50.282Z,1016.40
2022-10-28T04:58:50.273Z,1016.38
2022-10-28T04:59:50.261Z,1016.36
2022-10-28T05:00:50.249Z,1016.31
2022-10-28T05:01:50.402Z,1016.36
2022-10-28T05:02:50.235Z,1016.34
2022-10-28T05:03:50.218Z,1016.32
2022-10-28T05:04:50.203Z,1016.40
2022-10-28T05:05:50.194Z,1016.40
2022-10-28T05:06:50.215Z,1016.45
2022-10-28T05:07:50.212Z,1016.43
2022-10-28T05:08:50.159Z,1016.39
2022-10-28T05:09:50.151Z,1016.42
2022-10-28T05:10:50.141Z,1016.39
2022-10-28T05:11:50.143Z,1016.35
2022-10-28T05:12:50.130Z,1016.33
2022-10-28T05:13:50.105Z,1016.35
2022-10-28T05:14:52.483Z,1016.38
2022-10-28T05:15:50.084Z,1016.40
2022-10-28T05:16:50.081Z,1016.45
2022-10-28T05:17:50.273Z,1016.44
2022-10-28T05:18:50.051Z,1016.45
2022-10-28T05:19:50.043Z,1016.45
2022-10-28T05:20:50.029Z,1016.41
2022-10-28T05:21:50.034Z,1016.43
2022-10-28T05:22:50.116Z,1016.40
2022-10-28T05:23:50.048Z,1016.40
2022-10-28T05:24:49.985Z,1016.39
2022-10-28T05:25:49.973Z,1016.39
2022-10-28T05:26:49.973Z,1016.35
2022-10-28T05:27:49.953Z,1016.25
2022-10-28T05:28:49.938Z,1016.22
2022-10-28T05:29:49.928Z,1016.20
2022-10-28T05:30:49.918Z,1016.20
2022-10-28T05:31:49.926Z,1016.17
2022-10-28T05:32:52.885Z,1016.19
2022-10-28T05:33:50.889Z,1016.23
2022-10-28T05:34:49.887Z,1016.27
2022-10-28T05:35:49.862Z,1016.28
2022-10-28T05:36:49.862Z,1016.27
2022-10-28T05:37:49.839Z,1016.27
2022-10-28T05:38:49.828Z,1016.23
2022-10-28T05:39:49.839Z,1016.25
2022-10-28T05:40:49.806Z,1016.25
2022-10-28T05:41:49.815Z,1016.29
2022-10-28T05:42:49.785Z,1016.28
2022-10-28T05:43:49.783Z,1016.22
2022-10-28T05:44:49.761Z,1016.20
2022-10-28T05:45:49.753Z,1016.24
2022-10-28T05:46:49.753Z,1016.24
2022-10-28T05:47:49.728Z,1016.22
2022-10-28T05:48:49.723Z,1016.22
2022-10-28T05:49:49.712Z,1016.20
2022-10-28T05:50:49.694Z,1016.20
2022-10-28T05:51:49.695Z,1016.17
2022-10-28T05:52:49.675Z,1016.17
2022-10-28T05:53:49.667Z,1016.15
2022-10-28T05:54:49.653Z,1016.15
2022-10-28T05:55:49.660Z,1016.15
2022-10-28T05:56:49.638Z,1016.20
2022-10-28T05:57:49.623Z,1016.15
2022-10-28T05:59:49.597Z,1016.20
2022-10-28T06:00:49.585Z,1016.20
2022-10-28T06:01:49.653Z,1016.21
2022-10-28T06:02:49.565Z,1016.21
2022-10-28T06:03:49.572Z,1016.17
2022-10-28T06:04:49.542Z,1016.18
2022-10-28T06:05:49.532Z,1016.20
2022-10-28T06:06:49.527Z,1016.16
2022-10-28T06:07:49.512Z,1016.21
2022-10-28T06:08:49.498Z,1016.21
2022-10-28T06:09:49.486Z,1016.15
2022-10-28T06:10:48.508Z,1016.14
2022-10-28T06:11:47.966Z,1016.07
2022-10-28T06:12:47.918Z,1016.08
2022-10-28T06:13:47.909Z,1016.07
2022-10-28T06:14:47.898Z,1016.10
2022-10-28T06:15:47.889Z,1016.11
2022-10-28T06:16:47.888Z,1016.14
2022-10-28T06:17:47.869Z,1016.10
2022-10-28T06:18:47.860Z,1016.12
2022-10-28T06:19:47.850Z,1016.14
2022-10-28T06:20:47.837Z,1016.15
2022-10-28T06:21:47.887Z,1016.15
2022-10-28T06:22:47.818Z,1016.15
2022-10-28T06:23:47.808Z,1016.17
2022-10-28T06:24:47.800Z,1016.13
2022-10-28T06:25:47.837Z,1016.08
2022-10-28T06:26:47.786Z,1016.03
2022-10-28T06:27:47.787Z,1016.02
2022-10-28T06:28:47.758Z,1015.98
2022-10-28T06:29:47.748Z,1016.01
2022-10-28T06:30:47.738Z,1016.03
2022-10-28T06:31:47.739Z,1015.98
2022-10-28T06:32:47.727Z,1015.99
2022-10-28T06:33:47.707Z,1016.03
2022-10-28T06:34:47.698Z,1016.00
2022-10-28T06:35:47.694Z,1016.01
2022-10-28T06:36:47.686Z,1015.98
2022-10-28T06:37:47.668Z,1015.97
2022-10-28T06:38:47.656Z,1015.93
2022-10-28T06:39:47.653Z,1015.96
2022-10-28T06:40:50.250Z,1015.95
2022-10-28T06:41:47.639Z,1015.97
2022-10-28T06:42:47.615Z,1015.93
2022-10-28T06:43:47.612Z,1015.95
2022-10-28T06:44:47.617Z,1015.93
2022-10-28T06:45:47.597Z,1015.92
2022-10-28T06:46:49.104Z,1015.92
2022-10-28T06:47:49.082Z,1015.95
2022-10-28T06:48:49.068Z,1015.97
2022-10-28T06:49:49.083Z,1015.94
2022-10-28T06:50:49.050Z,1015.88
2022-10-28T06:51:49.054Z,1015.91
2022-10-28T06:52:49.041Z,1015.95
2022-10-28T06:53:49.053Z,1016.00
2022-10-28T06:54:49.007Z,1016.01
2022-10-28T06:55:49.008Z,1016.08
2022-10-28T06:56:48.996Z,1016.09
2022-10-28T06:57:49.002Z,1016.08
2022-10-28T06:58:48.972Z,1016.01
2022-10-28T06:59:48.965Z,1015.99
2022-10-28T07:00:49.110Z,1016.04
2022-10-28T07:01:49.019Z,1015.97
2022-10-28T07:02:48.970Z,1016.03
2022-10-28T07:03:48.935Z,1016.02
2022-10-28T07:04:48.929Z,1016.04
2022-10-28T07:05:48.934Z,1016.07
2022-10-28T07:06:51.291Z,1016.08
2022-10-28T07:07:48.876Z,1016.07
2022-10-28T07:08:48.865Z,1016.14
2022-10-28T07:09:48.856Z,1016.15
2022-10-28T07:10:48.847Z,1016.14
2022-10-28T07:11:53.600Z,1016.12
2022-10-28T07:12:49.825Z,1016.13
2022-10-28T07:13:49.094Z,1016.22
2022-10-28T07:14:48.804Z,1016.19
2022-10-28T07:15:48.818Z,1016.20
2022-10-28T07:16:48.786Z,1016.15
2022-10-28T07:17:48.796Z,1016.12
2022-10-28T07:18:48.767Z,1016.11
2022-10-28T07:19:48.753Z,1016.13
2022-10-28T07:20:48.747Z,1016.14
2022-10-28T07:21:48.744Z,1016.13
2022-10-28T07:22:48.722Z,1016.15
2022-10-28T07:23:48.713Z,1016.14
2022-10-28T07:24:48.704Z,1016.16
2022-10-28T07:25:48.744Z,1016.13
2022-10-28T07:26:48.692Z,1016.16
2022-10-28T07:27:48.674Z,1016.20
2022-10-28T07:28:48.660Z,1016.13
2022-10-28T07:29:48.650Z,1016.16
2022-10-28T07:30:48.640Z,1016.19
2022-10-28T07:31:48.642Z,1016.16
2022-10-28T07:32:48.617Z,1016.09
2022-10-28T07:33:48.627Z,1016.17
2022-10-28T07:34:48.597Z,1016.24
2022-10-28T07:35:48.618Z,1016.13
2022-10-28T07:36:48.594Z,1016.11
2022-10-28T07:37:48.571Z,1016.01
2022-10-28T07:38:48.560Z,1015.99
2022-10-28T07:39:48.550Z,1015.98
2022-10-28T07:40:48.532Z,1016.02
2022-10-28T07:41:48.536Z,1016.03
2022-10-28T07:42:48.510Z,1016.05
2022-10-28T07:43:48.501Z,1016.02
2022-10-28T07:44:48.490Z,1015.97
2022-10-28T07:45:48.494Z,1015.95
2022-10-28T07:46:48.479Z,1016.01
2022-10-28T07:47:48.458Z,1016.00
2022-10-28T07:48:48.445Z,1015.93
2022-10-28T07:49:48.452Z,1015.90
2022-10-28T07:50:48.425Z,1015.88
2022-10-28T07:51:48.428Z,1015.95
2022-10-28T07:52:48.399Z,1016.02
2022-10-28T07:53:48.390Z,1015.99
2022-10-28T07:54:48.376Z,1016.02
2022-10-28T07:55:48.367Z,1016.01
2022-10-28T07:56:48.365Z,1016.02
2022-10-28T07:57:48.349Z,1015.98
2022-10-28T07:58:48.331Z,1016.01
2022-10-28T07:59:48.319Z,1015.90
2022-10-28T08:00:48.360Z,1015.90
2022-10-28T08:01:48.395Z,1015.88
2022-10-28T08:02:48.282Z,1015.84
2022-10-28T08:03:48.296Z,1015.86
2022-10-28T08:04:48.258Z,1015.93
2022-10-28T08:05:48.265Z,1015.96
2022-10-28T08:06:48.311Z,1015.98
2022-10-28T08:07:48.218Z,1015.94
2022-10-28T08:08:48.203Z,1016.00
2022-10-28T08:09:48.192Z,1016.06
2022-10-28T08:10:48.178Z,1016.09
2022-10-28T08:11:48.180Z,1016.12
2022-10-28T08:12:48.172Z,1016.15
2022-10-28T08:13:48.143Z,1016.20
2022-10-28T08:14:48.132Z,1016.18
2022-10-28T08:15:48.147Z,1016.18
2022-10-28T08:16:48.115Z,1016.16
2022-10-28T08:17:48.088Z,1016.14
2022-10-28T08:18:48.076Z,1016.14
2022-10-28T08:19:48.066Z,1016.22
2022-10-28T08:20:48.065Z,1016.30
2022-10-28T08:21:48.067Z,1016.33
2022-10-28T08:22:48.026Z,1016.33
2022-10-28T08:23:48.016Z,1016.36
2022-10-28T08:24:48.006Z,1016.39
2022-10-28T08:25:47.993Z,1016.29
2022-10-28T08:26:47.992Z,1016.25
2022-10-28T08:27:47.985Z,1016.25
2022-10-28T08:28:47.959Z,1016.24
2022-10-28T08:29:47.947Z,1016.26
2022-10-28T08:30:57.219Z,1016.29
2022-10-28T08:31:48.940Z,1016.31
2022-10-28T08:32:47.913Z,1016.28
2022-10-28T08:33:47.907Z,1016.26
2022-10-28T08:34:47.914Z,1016.31
2022-10-28T08:35:47.891Z,1016.31
2022-10-28T08:36:47.939Z,1016.26
2022-10-28T08:37:47.879Z,1016.26
2022-10-28T08:38:47.848Z,1016.25
2022-10-28T08:39:47.837Z,1016.34
2022-10-28T08:40:47.825Z,1016.33
2022-10-28T08:41:47.827Z,1016.22
2022-10-28T08:42:47.805Z,1016.19
2022-10-28T08:43:57.134Z,1016.19
2022-10-28T08:44:48.782Z,1016.21
2022-10-28T08:45:47.773Z,1016.15
2022-10-28T08:46:47.767Z,1016.12
2022-10-28T08:47:47.774Z,1016.09
2022-10-28T08:48:47.751Z,1016.09
2022-10-28T08:49:49.358Z,1016.07
2022-10-28T08:50:47.726Z,1016.08
2022-10-28T08:51:47.743Z,1016.11
2022-10-28T08:52:47.699Z,1016.07
2022-10-28T08:53:47.715Z,1016.06
2022-10-28T08:54:47.679Z,1016.04
2022-10-28T08:55:47.666Z,1016.11
2022-10-28T08:56:47.668Z,1016.07
2022-10-28T08:57:47.641Z,1016.14
2022-10-28T08:58:47.632Z,1016.11
2022-10-28T08:59:47.620Z,1016.09
2022-10-28T09:00:47.611Z,1016.16
2022-10-28T09:01:47.832Z,1016.23
2022-10-28T09:02:47.586Z,1016.24
2022-10-28T09:03:47.576Z,1016.31
2022-10-28T09:04:47.564Z,1016.32
2022-10-28T09:05:47.552Z,1016.39
2022-10-28T09:06:47.575Z,1016.37
2022-10-28T09:07:47.530Z,1016.31
2022-10-28T09:08:47.521Z,1016.27
2022-10-28T09:09:47.533Z,1016.25
2022-10-28T09:10:47.499Z,1016.24
2022-10-28T09:11:47.511Z,1016.24
2022-10-28T09:12:47.479Z,1016.25
2022-10-28T09:13:47.468Z,1016.27
2022-10-28T09:14:47.456Z,1016.33
2022-10-28T09:15:47.457Z,1016.26
2022-10-28T09:16:47.451Z,1016.14
2022-10-28T09:17:47.427Z,1016.16
2022-10-28T09:18:47.424Z,1016.18
2022-10-28T09:19:47.528Z,1016.20
2022-10-28T09:20:47.393Z,1016.21
2022-10-28T09:21:47.399Z,1016.15
2022-10-28T09:22:47.373Z,1016.14
2022-10-28T09:23:47.359Z,1016.15
2022-10-28T09:24:47.380Z,1016.16
2022-10-28T09:25:47.362Z,1016.06
2022-10-28T09:26:47.338Z,1016.12
2022-10-28T09:27:47.318Z,1016.06
2022-10-28T09:28:47.310Z,1016.02
2022-10-28T09:29:47.350Z,1016.02
2022-10-28T09:30:47.294Z,1016.06
2022-10-28T09:31:47.297Z,1016.07
2022-10-28T09:32:47.269Z,1016.08
2022-10-28T09:33:47.253Z,1016.08
2022-10-28T09:34:47.254Z,1016.10
2022-10-28T09:35:47.251Z,1016.03
2022-10-28T09:36:47.239Z,1016.05
2022-10-28T09:37:47.213Z,1016.11
2022-10-28T09:38:47.206Z,1016.07
2022-10-28T09:39:47.199Z,1016.08
2022-10-28T09:40:47.186Z,1016.11
2022-10-28T09:41:47.216Z,1016.01
2022-10-28T09:42:47.216Z,1015.99
2022-10-28T09:43:47.153Z,1016.00
2022-10-28T09:44:47.146Z,1016.04
2022-10-28T09:45:47.131Z,1016.05
2022-10-28T09:46:47.144Z,1015.98
2022-10-28T09:47:47.113Z,1016.00
2022-10-28T09:48:47.104Z,1016.05
2022-10-28T09:49:47.100Z,1016.06
2022-10-28T09:50:47.084Z,1016.03
2022-10-28T09:51:47.093Z,1016.04
2022-10-28T09:52:47.066Z,1016.03
2022-10-28T09:53:47.056Z,1016.06
2022-10-28T09:54:47.046Z,1016.02
2022-10-28T09:55:47.035Z,1016.03
2022-10-28T09:56:47.047Z,1015.89
2022-10-28T09:57:47.030Z,1016.01
2022-10-28T09:58:47.008Z,1015.97
2022-10-28T09:59:46.997Z,1016.02
2022-10-28T10:00:46.987Z,1015.96
2022-10-28T10:01:47.051Z,1016.00
2022-10-28T10:02:47.112Z,1015.95
2022-10-28T10:03:46.957Z,1015.97
2022-10-28T10:04:46.947Z,1015.95
2022-10-28T10:05:46.939Z,1015.90
2022-10-28T10:06:46.940Z,1015.89
2022-10-28T10:07:46.921Z,1015.90
2022-10-28T10:08:46.907Z,1015.85
2022-10-28T10:09:46.905Z,1015.75
2022-10-28T10:10:46.891Z,1015.75
2022-10-28T10:11:46.890Z,1015.79
2022-10-28T10:12:48.668Z,1016.00
2022-10-28T10:13:46.928Z,1015.98
2022-10-28T10:14:46.896Z,1015.83
2022-10-28T10:15:46.867Z,1015.85
2022-10-28T10:16:46.841Z,1015.91
2022-10-28T10:17:46.819Z,1015.93
2022-10-28T10:18:46.818Z,1015.90
2022-10-28T10:19:50.374Z,1015.79
2022-10-28T10:20:46.791Z,1015.72
2022-10-28T10:21:46.789Z,1015.73
2022-10-28T10:22:46.771Z,1015.72
2022-10-28T10:23:46.767Z,1015.76
2022-10-28T10:24:46.751Z,1015.69
2022-10-28T10:25:46.740Z,1015.69
2022-10-28T10:26:46.741Z,1015.74
2022-10-28T10:27:46.734Z,1015.73
2022-10-28T10:28:46.711Z,1015.71
2022-10-28T10:29:46.719Z,1015.70
2022-10-28T10:30:46.691Z,1015.71
2022-10-28T10:31:46.685Z,1015.66
2022-10-28T10:32:46.667Z,1015.63
2022-10-28T10:33:46.654Z,1015.68
2022-10-28T10:34:46.649Z,1015.65
2022-10-28T10:35:46.631Z,1015.66
2022-10-28T10:36:46.636Z,1015.57
2022-10-28T10:37:46.611Z,1015.57
2022-10-28T10:38:46.648Z,1015.55
2022-10-28T10:39:46.590Z,1015.58
2022-10-28T10:40:46.587Z,1015.57
2022-10-28T10:41:46.580Z,1015.49
2022-10-28T10:42:57.513Z,1015.49
2022-10-28T10:43:47.548Z,1015.50
2022-10-28T10:44:46.541Z,1015.47
2022-10-28T10:45:46.553Z,1015.50
2022-10-28T10:46:46.541Z,1015.47
2022-10-28T10:47:46.503Z,1015.46
2022-10-28T10:48:46.499Z,1015.54
2022-10-28T10:49:46.486Z,1015.49
2022-10-28T10:50:46.473Z,1015.46
2022-10-28T10:51:46.484Z,1015.46
2022-10-28T10:52:46.472Z,1015.44
2022-10-28T10:53:46.441Z,1015.45
2022-10-28T10:54:46.429Z,1015.45
2022-10-28T10:55:46.416Z,1015.36
2022-10-28T10:56:46.505Z,1015.37
2022-10-28T10:57:46.401Z,1015.35
2022-10-28T10:58:46.385Z,1015.35
2022-10-28T10:59:46.371Z,1015.28
2022-10-28T11:00:46.365Z,1015.34
2022-10-28T11:01:46.481Z,1015.30
2022-10-28T11:02:46.402Z,1015.23
2022-10-28T11:03:46.403Z,1015.28
2022-10-28T11:04:46.318Z,1015.26
2022-10-28T11:05:48.009Z,1015.24
2022-10-28T11:06:47.311Z,1015.26
2022-10-28T11:07:46.283Z,1015.26
2022-10-28T11:08:46.282Z,1015.24
2022-10-28T11:09:46.261Z,1015.24
2022-10-28T11:10:46.251Z,1015.20
2022-10-28T11:11:46.256Z,1015.20
2022-10-28T11:12:46.245Z,1015.15
2022-10-28T11:13:46.402Z,1015.13
2022-10-28T11:14:46.207Z,1015.11
2022-10-28T11:15:46.196Z,1015.12
2022-10-28T11:16:46.200Z,1015.17
2022-10-28T11:17:46.194Z,1015.21
2022-10-28T11:18:46.166Z,1015.21
2022-10-28T11:19:46.152Z,1015.18
2022-10-28T11:20:46.142Z,1015.20
2022-10-28T11:21:46.141Z,1015.20
2022-10-28T11:22:46.120Z,1015.18
2022-10-28T11:23:46.132Z,1015.16
2022-10-28T11:24:46.097Z,1015.14
2022-10-28T11:25:46.083Z,1015.16
2022-10-28T11:26:46.100Z,1015.15
2022-10-28T11:27:48.625Z,1015.11
2022-10-28T11:28:47.053Z,1015.08
2022-10-28T11:29:46.041Z,1015.09
2022-10-28T11:30:46.031Z,1015.09
2022-10-28T11:31:46.023Z,1015.10
2022-10-28T11:32:56.179Z,1015.08
2022-10-28T11:33:47.022Z,1015.06
2022-10-28T11:34:45.986Z,1015.08
2022-10-28T11:35:45.975Z,1015.05
2022-10-28T11:36:45.966Z,1015.06
2022-10-28T11:37:46.014Z,1015.06
2022-10-28T11:38:46.036Z,1015.04
2022-10-28T11:39:45.938Z,1015.07
2022-10-28T11:40:45.923Z,1015.05
2022-10-28T11:41:45.923Z,1015.04
2022-10-28T11:42:45.900Z,1015.04
2022-10-28T11:43:47.671Z,1015.03
2022-10-28T11:44:45.882Z,1015.00
2022-10-28T11:45:48.652Z,1015.01
2022-10-28T11:46:46.870Z,1014.99
2022-10-28T11:47:45.845Z,1014.95
2022-10-28T11:48:45.840Z,1014.95
2022-10-28T11:49:45.838Z,1014.90
2022-10-28T11:50:45.815Z,1014.92
2022-10-28T11:51:45.818Z,1014.86
2022-10-28T11:52:45.791Z,1014.86
2022-10-28T11:53:45.778Z,1014.87
2022-10-28T11:54:45.770Z,1014.81
2022-10-28T11:55:45.759Z,1014.85
2022-10-28T11:56:45.758Z,1014.83
2022-10-28T11:57:45.736Z,1014.84
2022-10-28T11:58:45.727Z,1014.83
2022-10-28T11:59:45.715Z,1014.85
2022-10-28T12:00:45.703Z,1014.85
2022-10-28T12:01:45.871Z,1014.85
2022-10-28T12:02:49.362Z,1014.84
2022-10-28T12:03:46.667Z,1014.79
2022-10-28T12:04:45.659Z,1014.85
2022-10-28T12:05:45.667Z,1014.85
2022-10-28T12:06:45.658Z,1014.82
2022-10-28T12:07:45.625Z,1014.85
2022-10-28T12:08:45.617Z,1014.85